Flight Track Log - Related Links

Times and Time Zones

All times are in EDT time to prevent confusion due to time zone crossing. See the ASQ4577 flight status page for this flight to view local times or setup timezone preferences in your user account.

Time Position Orientation Groundspeed Altitude Reporting Facility
EDT Latitude Longitude Course Direction KTS MPH feet Rate Location/Type
Thu 03:29:18 PM 39.8833 -104.6167 90° East 188 216 6,100  Level Denver TRACON
Thu 03:30:18 PM 39.8833 -104.5333 90° East 219 252 8,100 2,098 Climbing Denver TRACON
Thu 03:32:01 PM 39.8750 -104.3758 94° East 269 310 11,800 2,182 Climbing Denver Center
Thu 03:33:03 PM 39.8769 -104.2733 89° East 280 322 14,100 2,195 Climbing Denver Center
Thu 03:34:04 PM 39.8783 -104.1706 89° East 283 326 16,300 1,951 Climbing Denver Center
Thu 03:35:06 PM 39.8797 -104.0575 89° East 289 333 18,100 1,694 Climbing Denver Center
Thu 03:36:08 PM 39.8806 -103.9506 89° East 294 338 19,800 1,548 Climbing Denver Center
Thu 03:37:10 PM 39.8825 -103.8269 89° East 319 367 21,300 1,191 Climbing Denver Center
Thu 03:38:24 PM 39.8897 -103.6828 86° East 338 389 22,500 1,059 Climbing Denver Center
Thu 03:39:26 PM 39.9058 -103.5331 82° East 373 429 23,700 1,065 Climbing Denver Center
Thu 03:40:28 PM 39.9214 -103.3978 81° East 384 442 24,700 919 Climbing Denver Center
Thu 03:41:30 PM 39.9367 -103.2644 81° East 389 448 25,600 968 Climbing Denver Center
Thu 03:42:32 PM 39.9542 -103.1061 82° East 396 456 26,700 1,016 Climbing Denver Center
Thu 03:43:34 PM 39.9692 -102.9700 82° East 396 456 27,700 1,016 Climbing Denver Center
Thu 03:44:36 PM 40.0000 -102.8161 75° East 395 455 28,800 927 Climbing Denver Center
Thu 03:45:37 PM 40.0208 -102.7067 76° East 392 451 29,600 1,024 Climbing Denver Center
Thu 03:46:39 PM 40.0572 -102.5297 75° East 396 456 30,900 1,113 Climbing Denver Center
Thu 03:47:41 PM 40.0833 -102.3953 76° East 401 461 31,900 919 Climbing Denver Center
Thu 03:48:43 PM 40.1103 -102.2606 75° East 403 464 32,800 882 Climbing Denver Center
Thu 03:49:57 PM 40.1394 -102.1028 76° East 400 460 33,900 971 Climbing Denver Center
Thu 03:50:59 PM 40.1742 -101.9244 76° East 397 457 35,000 532 Climbing Denver Center
Thu 03:52:01 PM 40.1997 -101.7889 76° East 401 461 35,000  Level Denver Center
Thu 03:53:03 PM 40.2303 -101.6242 76° East 416 479 35,000  Level Denver Center
Thu 03:54:05 PM 40.2586 -101.4781 76° East 430 495 35,000  Level Denver Center
Thu 03:55:07 PM 40.2842 -101.3328 77° East 431 496 35,000  Level Denver Center
Thu 03:56:09 PM 40.3150 -101.1658 76° East 425 489 35,000  Level Denver Center
Thu 03:57:11 PM 40.3417 -101.0197 76° East 432 497 35,000  Level Denver Center
Thu 03:58:12 PM 40.3675 -100.8750 77° East 430 495 35,000  Level Denver Center
Thu 03:59:14 PM 40.3975 -100.7072 77° East 426 490 35,000  Level Denver Center
Thu 04:00:18 PM 40.4278 -100.5386 77° East 429 494 35,000  Level Denver Center
Thu 04:01:19 PM 40.4486 -100.4150 77° East 437 503 35,000  Level Denver Center
Thu 04:02:21 PM 40.4833 -100.2200 77° East 434 499 35,000  Level Denver Center
Thu 04:03:23 PM 40.5133 -100.0483 77° East 434 499 35,000  Level Denver Center
Thu 04:04:25 PM 40.5392 -99.8981 77° East 439 505 35,000  Level Denver Center
Thu 04:05:27 PM 40.5658 -99.7403 77° East 439 505 35,000  Level Denver Center
Thu 04:06:29 PM 40.5922 -99.5850 77° East 436 502 35,000  Level Denver Center
Thu 04:07:30 PM 40.6178 -99.4314 78° East 431 496 35,000  Level Denver Center
Thu 04:08:32 PM 40.6425 -99.2758 78° East 435 501 35,000  Level Denver Center
Thu 04:09:34 PM 40.6731 -99.0878 78° East 440 506 35,000  Level Denver Center
Thu 04:10:19 PM 40.6883 -98.9950 78° East 440 506 35,000  Level Minneapolis Center
Thu 04:11:21 PM 40.7189 -98.8056 78° East 443 510 35,000  Level Minneapolis Center
Thu 04:12:23 PM 40.7444 -98.6475 78° East 444 511 35,000  Level Minneapolis Center
Thu 04:13:25 PM 40.7647 -98.5208 78° East 444 511 35,000  Level Minneapolis Center
Thu 04:14:27 PM 40.7939 -98.3331 78° East 442 509 35,000  Level Minneapolis Center
Thu 04:15:30 PM 40.8172 -98.1761 79° East 440 506 35,000  Level Minneapolis Center
Thu 04:16:32 PM 40.8467 -97.9872 78° East 440 506 35,000  Level Minneapolis Center
Thu 04:17:34 PM 40.8706 -97.8300 79° East 439 505 35,000  Level Minneapolis Center
Thu 04:18:36 PM 40.8942 -97.6708 79° East 441 507 35,000  Level Minneapolis Center
Thu 04:19:38 PM 40.9172 -97.5114 79° East 442 509 35,000  Level Minneapolis Center
Thu 04:20:40 PM 40.9425 -97.3478 78° East 445 512 35,000  Level Minneapolis Center
Thu 04:21:42 PM 40.9656 -97.1883 79° East 444 511 35,000  Level Minneapolis Center
Thu 04:22:44 PM 40.9883 -97.0258 79° East 447 514 35,000  Level Minneapolis Center
Thu 04:23:46 PM 41.0169 -96.8317 79° East 450 518 35,000  Level Minneapolis Center
Thu 04:24:48 PM 41.0400 -96.6681 79° East 453 521 35,000  Level Minneapolis Center
Thu 04:25:50 PM 41.0628 -96.5061 79° East 451 519 35,000  Level Minneapolis Center
Thu 04:26:53 PM 41.0864 -96.3428 79° East 452 520 35,000  Level Minneapolis Center
Thu 04:27:55 PM 41.1078 -96.1789 80° East 454 522 35,000  Level Minneapolis Center
Thu 04:28:57 PM 41.1347 -95.9769 80° East 460 529 35,000  Level Minneapolis Center
Thu 04:29:59 PM 41.1561 -95.8108 80° East 457 526 35,000  Level Minneapolis Center
Thu 04:31:01 PM 41.1808 -95.6425 79° East 463 533 35,000  Level Minneapolis Center
Thu 04:32:03 PM 41.2017 -95.4903 80° East 452 520 35,000  Level Minneapolis Center
Thu 04:33:05 PM 41.2258 -95.3267 79° East 454 522 35,000  Level Minneapolis Center
Thu 04:34:07 PM 41.2533 -95.1300 79° East 454 522 35,000  Level Minneapolis Center
Thu 04:35:09 PM 41.2750 -94.9661 80° East 452 520 35,000  Level Minneapolis Center
Thu 04:36:11 PM 41.2983 -94.7994 79° East 456 525 35,000  Level Minneapolis Center
Thu 04:37:14 PM 41.3211 -94.6306 80° East 463 533 35,000  Level Minneapolis Center
Thu 04:38:16 PM 41.3431 -94.4614 80° East 464 534 35,000  Level Minneapolis Center
Thu 04:39:30 PM 41.3667 -94.2903 80° East 469 540 35,000  Level Minneapolis Center
Thu 04:40:44 PM 41.3956 -94.0739 80° East 457 526 35,000  Level Minneapolis Center
Thu 04:41:47 PM 41.4197 -93.8753 81° East 455 524 35,000  Level Minneapolis Center
Thu 04:42:49 PM 41.4425 -93.7072 80° East 461 531 35,000  Level Minneapolis Center
Thu 04:43:51 PM 41.4681 -93.5056 80° East 463 533 35,000  Level Minneapolis Center
Thu 04:45:05 PM 41.4903 -93.3319 80° East 472 543 35,000  Level Minneapolis Center
Thu 04:46:08 PM 41.5142 -93.1306 81° East 465 535 35,000  Level Minneapolis Center
Thu 04:47:10 PM 41.5356 -92.9617 80° East 464 534 35,000  Level Minneapolis Center
Thu 04:48:12 PM 41.5553 -92.7911 81° East 465 535 35,000  Level Minneapolis Center
Thu 04:49:14 PM 41.5800 -92.5825 81° East 472 543 35,000  Level Minneapolis Center
Thu 04:49:35 PM 41.5842 -92.5419 82° East 475 547 35,000  Level Chicago Center
Thu 04:50:37 PM 41.6042 -92.3683 81° East 478 550 35,000  Level Chicago Center
Thu 04:51:39 PM 41.6278 -92.1644 81° East 471 542 35,000  Level Chicago Center
Thu 04:52:41 PM 41.6483 -91.9911 81° East 477 549 35,000  Level Chicago Center
Thu 04:53:43 PM 41.6672 -91.8142 82° East 484 557 35,000  Level Chicago Center
Thu 04:54:45 PM 41.6867 -91.6392 81° East 484 557 35,000  Level Chicago Center
Thu 04:55:47 PM 41.7089 -91.4289 82° East 483 556 35,000  Level Chicago Center
Thu 04:56:50 PM 41.7261 -91.2600 82° East 468 539 35,000  Level Chicago Center
Thu 04:57:52 PM 41.7444 -91.0875 82° East 475 547 35,000  Level Chicago Center
Thu 04:58:54 PM 41.7619 -90.9136 82° East 477 549 35,000  Level Chicago Center
Thu 04:59:56 PM 41.7797 -90.7386 82° East 480 552 35,000  Level Chicago Center
Thu 05:00:58 PM 41.8000 -90.5278 83° East 481 554 35,000  Level Chicago Center
Thu 05:02:00 PM 41.8175 -90.3517 82° East 481 554 35,000  Level Chicago Center
Thu 05:03:02 PM 41.8336 -90.1761 83° East 480 552 35,000  Level Chicago Center
Thu 05:04:04 PM 41.8503 -89.9994 83° East 482 555 35,000  Level Chicago Center
Thu 05:05:06 PM 41.8675 -89.8139 83° East 472 543 35,000  Level Chicago Center
Thu 05:06:09 PM 41.8842 -89.6358 83° East 480 552 35,000  Level Chicago Center
Thu 05:07:11 PM 41.9033 -89.4225 83° East 483 556 35,000  Level Chicago Center
Thu 05:08:13 PM 41.9189 -89.2464 83° East 480 552 35,000  Level Chicago Center
Thu 05:09:15 PM 41.9331 -89.0689 84° East 480 552 35,000  Level Chicago Center
Thu 05:10:17 PM 41.9486 -88.8883 83° East 487 560 35,000  Level Chicago Center
Thu 05:11:19 PM 41.9636 -88.7058 84° East 492 566 35,000  Level Chicago Center
Thu 05:12:21 PM 41.9803 -88.4914 84° East 485 558 35,000  Level Chicago Center
Thu 05:13:23 PM 41.9956 -88.3067 84° East 494 568 35,000  Level Chicago Center
Thu 05:14:25 PM 42.0092 -88.1258 84° East 489 563 35,000  Level Chicago Center
Thu 05:15:27 PM 42.0225 -87.9481 84° East 481 554 35,000  Level Chicago Center
Thu 05:16:29 PM 42.0361 -87.7650 84° East 490 564 35,000  Level Chicago Center
Thu 05:17:31 PM 42.0492 -87.5789 85° East 497 572 35,000  Level Chicago Center
Thu 05:18:33 PM 42.0625 -87.3925 84° East 502 578 35,000  Level Chicago Center
Thu 05:19:35 PM 42.0750 -87.1711 86° East 496 571 35,000  Level Chicago Center
Thu 05:20:37 PM 42.0747 -86.9850 90° East 498 573 35,000 -48 Level Chicago Center
Thu 05:21:39 PM 42.0756 -86.7986 90° East 501 577 34,900 -823 Descending Chicago Center
Thu 05:22:41 PM 42.0778 -86.5997 89° East 491 565 33,300 -919 Descending Chicago Center
Thu 05:23:43 PM 42.0775 -86.4189 90° East 485 558 33,000 -145 Descending Chicago Center
Thu 05:24:45 PM 42.0786 -86.2358 89° East 488 562 33,000  Level Chicago Center
Thu 05:25:47 PM 42.0781 -86.0472 90° East 501 577 33,000  Level Chicago Center
Thu 05:26:49 PM 42.0781 -85.8378 90° East 502 578 33,000  Level Chicago Center
Thu 05:27:51 PM 42.0772 -85.6494 90° East 505 581 33,000  Level Chicago Center
Thu 05:28:53 PM 42.0769 -85.4600 90° East 509 586 33,000  Level Chicago Center
Thu 05:29:22 PM 42.0778 -85.3508 89° East 517 595 33,000 -270 Level Cleveland Center
Thu 05:30:22 PM 42.0769 -85.1633 90° East 524 603 32,600 -500 Descending Cleveland Center
Thu 05:31:22 PM 42.0761 -84.9758 90° East 511 588 32,000 -300 Descending Cleveland Center
Thu 05:32:22 PM 42.0728 -84.7853 91° East 506 582 32,000  Level Cleveland Center
Thu 05:33:22 PM 42.0711 -84.5975 91° East 501 577 32,000 -500 Level Cleveland Center
Thu 05:34:22 PM 42.0672 -84.4100 92° East 501 577 31,000 -1,400 Descending Cleveland Center
Thu 05:35:22 PM 42.0600 -84.2389 93° East 496 571 29,200 -1,900 Descending Cleveland Center
Thu 05:36:22 PM 42.0578 -84.0483 91° East 501 577 27,200 -1,950 Descending Cleveland Center
Thu 05:37:22 PM 42.0550 -83.8608 91° East 501 577 25,300 -1,600 Descending Cleveland Center
Thu 05:38:22 PM 42.0517 -83.6789 91° East 495 570 24,000 -650 Descending Cleveland Center
Thu 05:39:22 PM 42.0461 -83.4883 92° East 476 548 24,000 -850 Level Cleveland Center
Thu 05:40:22 PM 42.0317 -83.3089 96° East 476 548 22,300 -2,200 Descending Cleveland Center
Thu 05:41:22 PM 42.0167 -83.1461 97° East 462 532 19,600 -2,150 Descending Cleveland Center
Thu 05:42:22 PM 41.9994 -82.9833 98° East 446 513 18,000 -1,750 Descending Cleveland Center
Thu 05:43:22 PM 41.9858 -82.8319 97° East 426 490 16,100 -1,900 Descending Cleveland Center
Thu 05:44:22 PM 41.9700 -82.6806 98° East 414 476 14,200 -1,537 Descending Cleveland Center
Thu 05:44:44 PM 41.9667 -82.6244 95° East 410 472 14,000 -1,400 Descending Cleveland Center
Thu 05:45:22 PM 41.9497 -82.5347 104° East 408 470 12,800 -1,837 Descending Cleveland Center
Thu 05:46:22 PM 41.9122 -82.4025 111° Southeast 388 447 11,000 -1,350 Descending Cleveland Center
Thu 05:47:22 PM 41.8703 -82.2728 113° Southeast 378 435 10,100 -450 Descending Cleveland Center
Thu 05:48:22 PM 41.8219 -82.1519 118° Southeast 373 429 10,100 -50 Level Cleveland Center
Thu 05:49:22 PM 41.7439 -82.0803 146° Southeast 367 422 10,000 -50 Descending Cleveland Center
Thu 05:50:22 PM 41.6592 -82.0061 147° Southeast 367 422 10,000 -200 Level Cleveland Center
Thu 05:51:22 PM 41.5747 -81.9322 147° Southeast 367 422 9,600 -640 Descending Cleveland Center
Thu 05:51:37 PM 41.5497 -81.9178 157° South 308 354 9,200 -2,069 Descending Cleveland Center
Thu 05:52:20 PM 41.4978 -81.9056 170° South 274 315 7,600 -1,886 Descending Cleveland Center
Thu 05:53:22 PM 41.4389 -81.9514 210° Southwest 244 281 5,900 -1,230 Descending Cleveland Center
Thu 05:54:22 PM 41.3986 -82.0197 232° Southwest 230 265 5,100 -818 Descending Cleveland Center
Thu 05:55:34 PM 41.3481 -82.0600 211° Southwest 182 209 4,100 -898 Descending Cleveland Center
Thu 05:56:29 PM 41.3194 -82.0069 126° Southeast 195 224 3,200 -931 Descending Cleveland Center
Thu 05:57:30 PM 41.3494 -81.9522 54° Northeast 181 208 2,300 -835 Descending Cleveland Center
Thu 05:58:24 PM 41.3747 -81.9142 48° Northeast 134 154 1,600 -778 Descending Cleveland Center
Thu 06:00:00 PM 41.4000 -81.8500 82° East  Level FlightAware Approximate
Thu 06:07:00 PM 41.4094 -81.8547 82° East  Level Estimated

Login

Don't have an account? Register now (free) for customized features, flight alerts, and more!